West Hamburg, Pennsylvania
Current Conditions -  °F | °C
As of 3:54 AM on Sunday 23 Nov 2014 (Local Time) from KRDG Reporting Station
Overcast Overcast  
Wind Chill: 34°   Ceiling: 8500
Heat Index: 38°   Visibility: 10mi
Dew Point: 24°   Wind: 5mph
Humidity: 57%   Direction: 210°SSW
Pressure: 30.18"   Gusts: NA
Location:  40.5494°N, 75.999°W
Report Text: KRDG 230854Z AUTO 21004KT 10SM BKN085 OVC110 03/M04 A3018 RMK AO2 SLP228 T00331044 55004
Loading
Personal Weather Stations






























Interactive Weather Map New forecast layout! Learn more

10-Day Weather Forecast

Advertisements
Track Severe Weather on mobile